createdAt,value
2022-11-16T00:00:21.793Z,14.50
2022-11-16T00:02:24.538Z,15.63
2022-11-16T00:04:27.709Z,14.00
2022-11-16T00:06:31.679Z,17.37
2022-11-16T00:08:37.375Z,14.90
2022-11-16T00:10:42.786Z,15.70
2022-11-16T00:12:48.776Z,14.80
2022-11-16T00:14:52.056Z,15.67
2022-11-16T00:16:55.275Z,14.60
2022-11-16T00:19:01.665Z,14.83
2022-11-16T00:21:06.074Z,14.40
2022-11-16T00:23:09.981Z,14.57
2022-11-16T00:25:12.614Z,15.23
2022-11-16T00:27:15.288Z,14.67
2022-11-16T00:29:19.577Z,14.13
2022-11-16T00:31:22.343Z,15.37
2022-11-16T00:33:24.950Z,14.17
2022-11-16T00:35:27.645Z,14.80
2022-11-16T00:37:30.541Z,14.50
2022-11-16T00:39:34.437Z,14.40
2022-11-16T00:41:37.073Z,14.70
2022-11-16T00:43:39.799Z,14.63
2022-11-16T00:45:43.374Z,14.83
2022-11-16T00:47:45.980Z,14.27
2022-11-16T00:49:48.606Z,14.87
2022-11-16T00:51:51.226Z,14.53
2022-11-16T00:53:54.190Z,14.47
2022-11-16T00:55:58.155Z,14.40
2022-11-16T00:58:01.969Z,13.23
2022-11-16T01:00:04.991Z,14.73
2022-11-16T01:02:08.033Z,14.30
2022-11-16T01:04:10.678Z,14.93
2022-11-16T01:06:14.024Z,12.73
2022-11-16T01:08:16.743Z,15.03
2022-11-16T01:10:20.734Z,15.27
2022-11-16T01:12:23.800Z,13.73
2022-11-16T01:14:26.447Z,14.70
2022-11-16T01:16:29.070Z,13.83
2022-11-16T01:18:32.517Z,14.43
2022-11-16T01:20:36.047Z,13.57
2022-11-16T01:22:38.946Z,14.83
2022-11-16T01:24:41.697Z,15.93
2022-11-16T01:26:45.677Z,14.83
2022-11-16T01:28:49.557Z,14.60
2022-11-16T01:30:52.985Z,14.07
2022-11-16T01:32:55.721Z,13.80
2022-11-16T01:34:58.901Z,14.43
2022-11-16T01:37:01.521Z,13.10
2022-11-16T01:39:04.264Z,15.37
2022-11-16T01:41:07.121Z,14.30
2022-11-16T01:43:12.899Z,15.73
2022-11-16T01:45:21.029Z,14.70
2022-11-16T01:47:23.682Z,15.13
2022-11-16T01:49:28.267Z,13.57
2022-11-16T01:51:31.003Z,14.37
2022-11-16T01:53:33.665Z,18.47
2022-11-16T01:55:36.956Z,14.70
2022-11-16T01:57:42.250Z,15.70
2022-11-16T01:59:44.871Z,14.90
2022-11-16T02:01:48.779Z,14.27
2022-11-16T02:03:51.413Z,13.93
2022-11-16T02:06:04.128Z,14.23
2022-11-16T02:08:27.987Z,15.07
2022-11-16T02:10:41.161Z,14.73
2022-11-16T02:12:53.378Z,16.47
2022-11-16T02:15:04.397Z,15.07
2022-11-16T02:17:10.843Z,13.73
2022-11-16T02:19:41.562Z,16.73
2022-11-16T02:21:44.837Z,14.63
2022-11-16T02:24:09.964Z,15.50
2022-11-16T02:26:23.188Z,15.63
2022-11-16T02:28:31.691Z,14.93
2022-11-16T02:30:35.770Z,13.23
2022-11-16T02:32:40.026Z,14.40
2022-11-16T02:34:44.254Z,14.80
2022-11-16T02:36:47.021Z,13.30
2022-11-16T02:38:52.327Z,14.40
2022-11-16T02:40:55.978Z,13.33
2022-11-16T02:43:00.350Z,14.70
2022-11-16T02:45:03.133Z,13.87
2022-11-16T02:47:11.136Z,13.27
2022-11-16T02:49:17.403Z,13.47
2022-11-16T02:51:20.235Z,13.83
2022-11-16T02:53:23.055Z,13.70
2022-11-16T02:55:25.689Z,15.27
2022-11-16T02:57:34.125Z,13.40
2022-11-16T02:59:38.696Z,13.30
2022-11-16T03:01:42.408Z,13.47
2022-11-16T03:03:48.819Z,13.43
2022-11-16T03:05:53.541Z,12.93
2022-11-16T03:07:59.014Z,12.20
2022-11-16T03:10:01.775Z,13.07
2022-11-16T03:12:05.804Z,13.80
2022-11-16T03:14:10.517Z,12.33
2022-11-16T03:16:15.073Z,12.40
2022-11-16T03:18:17.878Z,12.63
2022-11-16T03:20:24.305Z,11.80
2022-11-16T03:22:28.478Z,12.50
2022-11-16T03:24:31.491Z,12.83
2022-11-16T03:26:35.703Z,11.80
2022-11-16T03:28:45.593Z,12.20
2022-11-16T03:30:54.058Z,11.77
2022-11-16T03:32:58.316Z,12.00
2022-11-16T03:35:03.159Z,11.67
2022-11-16T03:37:07.521Z,11.20
2022-11-16T03:39:12.936Z,11.27
2022-11-16T03:41:16.054Z,12.23
2022-11-16T03:43:18.728Z,11.53
2022-11-16T03:45:22.187Z,10.90
2022-11-16T03:47:25.228Z,11.07
2022-11-16T03:49:30.470Z,10.70
2022-11-16T03:51:33.131Z,11.57
2022-11-16T03:53:37.612Z,11.20
2022-11-16T03:55:40.230Z,11.10
2022-11-16T03:57:42.840Z,11.33
2022-11-16T03:59:46.326Z,10.37
2022-11-16T04:01:49.353Z,10.50
2022-11-16T04:03:51.969Z,10.93
2022-11-16T04:06:05.691Z,10.27
2022-11-16T04:08:25.657Z,11.03
2022-11-16T04:10:40.640Z,10.27
2022-11-16T04:12:55.186Z,10.40
2022-11-16T04:15:12.167Z,10.60
2022-11-16T04:17:25.936Z,11.20
2022-11-16T04:19:39.551Z,10.63
2022-11-16T04:21:54.839Z,10.63
2022-11-16T04:24:08.647Z,10.07
2022-11-16T04:26:12.695Z,10.73
2022-11-16T04:28:15.022Z,10.80
2022-11-16T04:30:18.365Z,9.97
2022-11-16T09:36:25.500Z,11.70
2022-11-16T09:38:40.661Z,8.60
2022-11-16T09:40:50.840Z,8.97
2022-11-16T09:43:00.887Z,8.70
2022-11-16T09:45:06.269Z,10.80
2022-11-16T09:47:11.158Z,7.97
2022-11-16T09:49:18.150Z,8.27
2022-11-16T09:51:22.631Z,9.07
2022-11-16T09:53:31.874Z,8.10
2022-11-16T09:55:36.964Z,9.43
2022-11-16T09:57:39.650Z,10.50
2022-11-16T09:59:45.085Z,9.00
2022-11-16T10:01:49.291Z,9.27
2022-11-16T10:03:52.614Z,9.47
2022-11-16T10:06:00.759Z,8.77
2022-11-16T10:08:05.652Z,7.67
2022-11-16T10:10:13.096Z,9.00
2022-11-16T10:12:18.037Z,8.67
2022-11-16T10:14:37.925Z,9.97
2022-11-16T10:16:41.449Z,8.90
2022-11-16T10:18:49.340Z,8.20
2022-11-16T10:21:03.640Z,8.63
2022-11-16T10:23:10.057Z,8.90
2022-11-16T10:25:16.051Z,8.27
2022-11-16T10:27:27.545Z,9.13
2022-11-16T10:29:36.647Z,9.57
2022-11-16T10:31:51.420Z,8.80
2022-11-16T10:33:55.535Z,8.77
2022-11-16T10:35:58.639Z,10.37
2022-11-16T10:38:03.914Z,10.53
2022-11-16T10:40:18.575Z,9.80
2022-11-16T10:42:23.628Z,10.27
2022-11-16T10:44:41.389Z,10.53
2022-11-16T10:46:45.380Z,11.60
2022-11-16T10:48:52.215Z,10.40
2022-11-16T10:50:54.912Z,10.70
2022-11-16T10:52:57.937Z,10.17
2022-11-16T10:55:00.584Z,10.30
2022-11-16T10:57:05.718Z,11.10
2022-11-16T10:59:09.110Z,10.10
2022-11-16T11:01:12.174Z,11.30
2022-11-16T11:03:14.967Z,11.17
2022-11-16T11:05:20.213Z,9.80
2022-11-16T11:07:24.517Z,11.90
2022-11-16T11:09:29.029Z,11.93
2022-11-16T11:11:42.682Z,10.90
2022-11-16T11:14:02.117Z,13.50
2022-11-16T11:16:15.394Z,10.30
2022-11-16T11:18:20.409Z,10.60
2022-11-16T11:20:24.312Z,11.47
2022-11-16T11:22:27.409Z,11.80
2022-11-16T11:24:44.048Z,10.60
2022-11-16T11:26:50.625Z,11.30
2022-11-16T11:28:54.998Z,10.13
2022-11-16T11:31:00.132Z,10.67
2022-11-16T11:33:02.769Z,12.03
2022-11-16T11:35:06.621Z,11.03
2022-11-16T11:37:14.641Z,13.80
2022-11-16T11:39:29.556Z,13.30
2022-11-16T11:41:34.607Z,13.20
2022-11-16T11:43:38.485Z,12.10
2022-11-16T11:45:45.948Z,11.73
2022-11-16T11:47:57.856Z,11.80
2022-11-16T11:50:04.185Z,18.40
2022-11-16T11:52:12.601Z,13.33
2022-11-16T11:54:17.797Z,13.20
2022-11-16T11:56:20.492Z,13.20
2022-11-16T11:58:23.091Z,15.60
2022-11-16T12:00:27.160Z,13.60
2022-11-16T12:02:39.306Z,12.03
2022-11-16T12:04:58.047Z,14.20
2022-11-16T12:07:03.754Z,13.17
2022-11-16T12:09:17.221Z,14.60
2022-11-16T12:11:23.017Z,12.93
2022-11-16T12:13:36.819Z,14.80
2022-11-16T12:15:48.288Z,14.27
2022-11-16T12:17:55.793Z,14.60
2022-11-16T12:20:05.820Z,13.97
2022-11-16T12:22:14.805Z,16.13
2022-11-16T12:24:29.755Z,14.80
2022-11-16T12:26:37.399Z,22.37
2022-11-16T12:28:51.102Z,14.80
2022-11-16T12:31:01.506Z,14.53
2022-11-16T12:33:15.365Z,14.50
2022-11-16T12:35:31.805Z,14.57
2022-11-16T12:37:37.452Z,15.73
2022-11-16T12:39:43.005Z,14.17
2022-11-16T12:42:00.912Z,16.70
2022-11-16T12:44:05.515Z,18.07
2022-11-16T12:46:26.988Z,16.67
2022-11-16T12:48:45.610Z,15.30
2022-11-16T12:50:53.067Z,13.83
2022-11-16T12:53:06.137Z,16.10
2022-11-16T12:55:31.324Z,17.30
2022-11-16T12:57:39.142Z,14.43
2022-11-16T12:59:54.560Z,12.93
2022-11-16T13:02:03.800Z,17.93
2022-11-16T13:04:11.922Z,14.60
2022-11-16T13:06:17.877Z,13.47
2022-11-16T13:08:37.612Z,15.03
2022-11-16T13:10:42.949Z,15.63
2022-11-16T13:12:46.556Z,17.53
2022-11-16T13:14:49.509Z,14.20
2022-11-16T13:16:52.532Z,15.00
2022-11-16T13:18:55.465Z,14.50
2022-11-16T13:21:02.262Z,14.17
2022-11-16T13:23:06.133Z,15.70
2022-11-16T13:25:15.686Z,16.00
2022-11-16T13:27:26.087Z,14.90
2022-11-16T13:29:31.643Z,15.00
2022-11-16T13:31:36.367Z,13.30
2022-11-16T13:33:46.170Z,13.77
2022-11-16T13:35:52.678Z,15.27
2022-11-16T13:37:56.638Z,13.50
2022-11-16T13:40:14.872Z,13.30
2022-11-16T13:42:17.578Z,15.00
2022-11-16T13:44:28.892Z,16.90
2022-11-16T13:46:56.452Z,13.47
2022-11-16T13:48:59.477Z,14.20
2022-11-16T13:51:02.819Z,13.20
2022-11-16T13:55:31.085Z,15.67
2022-11-16T13:57:34.595Z,14.60
2022-11-16T13:59:37.325Z,13.57
2022-11-16T14:01:55.628Z,13.67
2022-11-16T14:04:35.269Z,15.27
2022-11-16T14:06:57.005Z,13.63
2022-11-16T14:09:01.975Z,13.43
2022-11-16T14:11:05.284Z,16.90
2022-11-16T14:13:30.094Z,14.27
2022-11-16T14:15:34.065Z,16.23
2022-11-16T14:17:52.780Z,16.03
2022-11-16T14:19:55.973Z,14.50
2022-11-16T14:22:00.193Z,15.97
2022-11-16T14:24:09.171Z,18.27
2022-11-16T14:26:15.136Z,15.20
2022-11-16T14:28:37.241Z,14.20
2022-11-16T14:30:48.522Z,15.00
2022-11-16T14:32:52.854Z,15.20
2022-11-16T14:34:56.019Z,16.20
2022-11-16T14:36:59.436Z,17.50
2022-11-16T14:39:17.185Z,15.53
2022-11-16T14:41:21.485Z,16.97
2022-11-16T14:43:27.928Z,15.37
2022-11-16T14:45:32.371Z,20.53
2022-11-16T14:47:36.544Z,14.93
2022-11-16T14:49:46.120Z,16.37
2022-11-16T14:51:49.951Z,16.03
2022-11-16T14:53:54.270Z,16.27
2022-11-16T14:56:08.801Z,15.70
2022-11-16T14:58:17.200Z,15.57
2022-11-16T15:00:21.617Z,19.60
2022-11-16T15:02:25.354Z,15.00
2022-11-16T15:04:28.024Z,16.13
2022-11-16T15:06:44.417Z,16.20
2022-11-16T15:08:49.306Z,18.50
2022-11-16T15:10:52.770Z,17.07
2022-11-16T15:12:56.250Z,18.30
2022-11-16T15:15:02.705Z,15.27
2022-11-16T15:17:07.728Z,15.07
2022-11-16T15:19:12.475Z,15.70
2022-11-16T15:21:22.300Z,17.50
2022-11-16T15:23:30.457Z,16.47
2022-11-16T15:25:34.915Z,17.00
2022-11-16T15:27:38.611Z,15.63
2022-11-16T15:29:42.936Z,15.07
2022-11-16T15:31:45.603Z,17.57
2022-11-16T15:33:50.239Z,16.60
2022-11-16T15:35:56.693Z,16.73
2022-11-16T15:38:03.631Z,15.27
2022-11-16T15:40:07.470Z,15.97
2022-11-16T15:42:11.987Z,17.07
2022-11-16T15:44:16.519Z,17.60
2022-11-16T15:46:21.093Z,16.50
2022-11-16T15:48:24.314Z,16.33
2022-11-16T15:50:27.598Z,18.97
2022-11-16T15:52:43.367Z,17.77
2022-11-16T15:54:56.996Z,18.27
2022-11-16T15:57:06.763Z,18.43
2022-11-16T15:59:12.619Z,18.20
2022-11-16T16:01:15.759Z,16.40
2022-11-16T16:03:21.672Z,20.50
2022-11-16T16:05:34.392Z,17.53
2022-11-16T16:07:37.222Z,16.67
2022-11-16T16:09:40.505Z,17.80
2022-11-16T16:11:43.421Z,19.70
2022-11-16T16:13:57.651Z,16.20
2022-11-16T16:16:22.579Z,16.97
2022-11-16T16:20:57.608Z,17.70
2022-11-16T16:23:07.940Z,17.50
2022-11-16T16:25:26.832Z,16.73
2022-11-16T16:27:30.761Z,19.07
2022-11-16T16:29:33.422Z,16.13
2022-11-16T16:31:36.065Z,17.17
2022-11-16T16:33:38.953Z,18.07
2022-11-16T16:35:41.605Z,16.67
2022-11-16T16:37:45.539Z,17.47
2022-11-16T16:39:48.207Z,19.27
2022-11-16T16:41:50.836Z,18.30
2022-11-16T16:43:53.568Z,16.90
2022-11-16T16:45:56.565Z,20.33
2022-11-16T16:47:59.204Z,21.00
2022-11-16T16:50:01.941Z,18.03
2022-11-16T16:52:04.941Z,18.60
2022-11-16T16:54:10.855Z,19.50
2022-11-16T16:56:15.689Z,21.40
2022-11-16T16:58:18.527Z,18.33
2022-11-16T17:00:21.319Z,18.63
2022-11-16T17:02:25.439Z,20.27
2022-11-16T17:04:28.068Z,19.07
2022-11-16T17:06:30.821Z,18.83
2022-11-16T17:08:35.088Z,22.93
2022-11-16T17:10:39.612Z,20.30
2022-11-16T17:12:42.284Z,20.67
2022-11-16T17:14:51.658Z,21.13
2022-11-16T17:16:54.366Z,20.10
2022-11-16T17:18:57.071Z,19.43
2022-11-16T17:21:04.407Z,20.60
2022-11-16T17:23:08.357Z,19.57
2022-11-16T17:25:11.614Z,19.33
2022-11-16T17:27:15.690Z,20.20
2022-11-16T17:29:18.758Z,19.63
2022-11-16T17:31:21.503Z,22.73
2022-11-16T17:33:24.183Z,20.10
2022-11-16T17:35:27.109Z,19.93
2022-11-16T17:37:30.178Z,19.17
2022-11-16T17:39:32.853Z,21.73
2022-11-16T17:41:35.567Z,19.40
2022-11-16T17:43:42.391Z,19.70
2022-11-16T17:45:45.283Z,19.63
2022-11-16T17:47:48.444Z,20.20
2022-11-16T17:49:51.204Z,21.73
2022-11-16T17:51:56.348Z,19.70
2022-11-16T17:53:59.069Z,19.27
2022-11-16T17:56:01.765Z,20.33
2022-11-16T17:58:04.471Z,19.80
2022-11-16T18:00:17.333Z,19.50
2022-11-16T18:02:20.494Z,23.20
2022-11-16T18:04:23.539Z,22.10
2022-11-16T18:06:26.445Z,20.93
2022-11-16T18:08:32.431Z,24.20
2022-11-16T18:10:36.452Z,20.70
2022-11-16T18:12:42.200Z,21.33
2022-11-16T18:15:06.332Z,20.73
2022-11-16T18:17:08.798Z,18.00
2022-11-16T18:19:16.179Z,20.33
2022-11-16T18:21:20.613Z,19.63
2022-11-16T18:23:26.680Z,21.00
2022-11-16T18:25:29.432Z,20.50
2022-11-16T18:27:32.087Z,20.40
2022-11-16T18:29:36.825Z,20.13
2022-11-16T18:31:39.505Z,19.90
2022-11-16T18:33:43.831Z,20.87
2022-11-16T18:35:46.551Z,18.93
2022-11-16T18:37:50.766Z,21.83
2022-11-16T18:39:59.532Z,21.07
2022-11-16T18:42:02.201Z,20.30
2022-11-16T18:44:06.244Z,19.60
2022-11-16T18:46:09.382Z,19.40
2022-11-16T18:48:12.067Z,18.93
2022-11-16T18:50:21.275Z,20.90
2022-11-16T18:52:26.757Z,19.33
2022-11-16T18:54:32.388Z,19.50
2022-11-16T18:56:36.224Z,18.23
2022-11-16T18:58:54.423Z,18.63
2022-11-16T19:01:02.070Z,17.60
2022-11-16T19:03:11.222Z,18.40
2022-11-16T19:05:14.451Z,20.37
2022-11-16T19:07:18.370Z,17.77
2022-11-16T19:09:21.102Z,19.20
2022-11-16T19:11:23.934Z,18.47
2022-11-16T19:13:26.627Z,19.27
2022-11-16T19:15:29.807Z,18.40
2022-11-16T19:17:32.489Z,17.77
2022-11-16T19:19:35.219Z,19.20
2022-11-16T19:21:38.891Z,18.20
2022-11-16T19:23:44.416Z,17.60
2022-11-16T19:25:47.095Z,18.00
2022-11-16T19:27:49.745Z,17.57
2022-11-16T19:29:53.060Z,17.50
2022-11-16T19:31:57.216Z,16.23
2022-11-16T19:34:00.683Z,17.37
2022-11-16T19:36:07.950Z,18.60
2022-11-16T19:38:10.564Z,17.43
2022-11-16T19:40:14.773Z,16.37
2022-11-16T19:42:17.464Z,16.60
2022-11-16T19:44:20.172Z,15.67
2022-11-16T19:46:24.359Z,15.43
2022-11-16T19:48:27.023Z,15.37
2022-11-16T19:50:29.720Z,15.67
2022-11-16T19:52:32.737Z,15.37
2022-11-16T19:54:35.463Z,15.97
2022-11-16T19:56:39.419Z,15.60
2022-11-16T19:58:42.166Z,14.70
2022-11-16T20:00:45.396Z,14.37
2022-11-16T20:02:48.136Z,14.27
2022-11-16T20:04:51.871Z,15.97
2022-11-16T20:06:54.629Z,14.53
2022-11-16T20:09:00.573Z,15.00
2022-11-16T20:11:03.362Z,15.00
2022-11-16T20:13:07.272Z,16.80
2022-11-16T20:15:10.624Z,14.50
2022-11-16T20:17:13.657Z,15.30
2022-11-16T20:19:17.241Z,15.97
2022-11-16T20:21:23.252Z,16.30
2022-11-16T20:23:29.020Z,15.43
2022-11-16T20:25:32.516Z,15.57
2022-11-16T20:27:35.387Z,14.50
2022-11-16T20:29:39.332Z,15.00
2022-11-16T20:31:42.953Z,14.13
2022-11-16T20:33:50.699Z,15.10
2022-11-16T20:35:53.336Z,16.13
2022-11-16T20:37:55.935Z,14.87
2022-11-16T20:39:58.670Z,14.90
2022-11-16T20:42:01.651Z,14.80
2022-11-16T20:44:04.583Z,15.23
2022-11-16T20:46:08.981Z,15.30
2022-11-16T20:48:12.097Z,15.40
2022-11-16T20:50:14.938Z,13.70
2022-11-16T20:52:17.901Z,16.07
2022-11-16T20:54:20.635Z,14.90
2022-11-16T20:56:23.711Z,15.47
2022-11-16T20:58:26.388Z,15.07
2022-11-16T21:00:29.078Z,14.73
2022-11-16T21:02:33.012Z,15.63
2022-11-16T21:04:36.127Z,16.27
2022-11-16T21:06:38.802Z,15.23
2022-11-16T21:08:41.620Z,15.40
2022-11-16T21:10:44.267Z,14.30
2022-11-16T21:12:58.391Z,15.27
2022-11-16T21:15:01.052Z,17.57
2022-11-16T21:17:03.690Z,14.33
2022-11-16T21:19:08.048Z,14.20
2022-11-16T21:21:12.229Z,16.50
2022-11-16T21:23:14.991Z,14.30
2022-11-16T21:25:18.059Z,14.80
2022-11-16T21:27:21.194Z,14.70
2022-11-16T21:29:25.960Z,14.27
2022-11-16T21:31:29.813Z,14.10
2022-11-16T21:33:32.997Z,14.20
2022-11-16T21:35:37.251Z,14.37
2022-11-16T21:37:39.886Z,15.53
2022-11-16T21:39:42.602Z,14.00
2022-11-16T21:41:45.239Z,13.27
2022-11-16T21:43:47.851Z,13.57
2022-11-16T21:45:51.088Z,13.77
2022-11-16T21:47:53.737Z,13.83
2022-11-16T21:50:29.686Z,13.57
2022-11-16T21:52:24.057Z,16.33
2022-11-16T21:54:47.293Z,13.73
2022-11-16T21:56:50.146Z,12.60
2022-11-16T21:58:53.762Z,14.00
2022-11-16T22:00:56.661Z,13.77
2022-11-16T22:03:00.015Z,13.50
2022-11-16T22:05:13.771Z,13.60
2022-11-16T22:07:30.997Z,13.20
2022-11-16T22:09:35.400Z,13.73
2022-11-16T22:11:38.758Z,13.00
2022-11-16T22:13:41.498Z,12.97
2022-11-16T22:15:46.304Z,12.70
2022-11-16T22:17:50.652Z,14.30
2022-11-16T22:19:54.137Z,13.80
2022-11-16T22:21:57.776Z,14.57
2022-11-16T22:24:02.611Z,14.17
2022-11-16T22:26:07.422Z,14.57
2022-11-16T22:28:25.996Z,15.27
2022-11-16T22:30:28.654Z,12.97
2022-11-16T22:32:31.728Z,13.90
2022-11-16T22:34:34.384Z,14.30
2022-11-16T22:36:39.816Z,13.57
2022-11-16T22:38:42.480Z,14.20
2022-11-16T22:40:49.825Z,13.57
2022-11-16T22:42:57.067Z,14.20
2022-11-16T22:44:59.737Z,13.57
2022-11-16T22:47:02.410Z,13.57
2022-11-16T22:49:05.399Z,13.53
2022-11-16T22:51:08.915Z,12.37
2022-11-16T22:53:11.609Z,14.30
2022-11-16T22:55:14.273Z,14.17
2022-11-16T22:57:17.361Z,12.87
2022-11-16T22:59:21.269Z,13.80
2022-11-16T23:01:24.005Z,13.60
2022-11-16T23:03:26.740Z,13.17
2022-11-16T23:05:29.896Z,13.83
2022-11-16T23:07:33.163Z,14.17
2022-11-16T23:09:36.375Z,13.00
2022-11-16T23:11:50.403Z,14.63
2022-11-16T23:14:04.407Z,14.40
2022-11-16T23:16:08.989Z,12.70
2022-11-16T23:18:11.663Z,13.57
2022-11-16T23:20:28.285Z,14.67
2022-11-16T23:22:42.024Z,14.13
2022-11-16T23:24:56.628Z,13.40
2022-11-16T23:27:10.299Z,14.30
2022-11-16T23:29:12.973Z,14.10
2022-11-16T23:31:16.897Z,14.13
2022-11-16T23:33:40.130Z,14.37
2022-11-16T23:35:43.001Z,13.43
2022-11-16T23:37:52.937Z,13.60
2022-11-16T23:39:55.635Z,12.87
2022-11-16T23:42:09.579Z,14.70
2022-11-16T23:44:12.222Z,13.70
2022-11-16T23:46:14.834Z,12.93
2022-11-16T23:48:19.365Z,14.27
2022-11-16T23:50:22.473Z,14.97
2022-11-16T23:52:25.105Z,13.13
2022-11-16T23:54:27.754Z,13.53
2022-11-16T23:56:30.553Z,13.50
2022-11-16T23:58:33.636Z,13.40
